Time;durP1;ratioP1;P1;durP2;ratioP2;P2;SDS_P1;SDS_P2;PMS_P1;PMS_P2;Temp;Humidity;BMP_temperature;BMP_pressure;BME280_temperature;BME280_humidity;BME280_pressure;Samples;Min_cycle;Max_cycle;Signal;HPM_P1;HPM_P2
2023/04/15 00:03:33;;;;;;;9.40;7.40;;;;;7.90;95158.00;;;;8439267;28;20284;-73
2023/04/15 00:07:37;;;;;;;7.80;6.60;;;;;7.80;95152.00;;;;8441270;28;20195;-73
2023/04/15 00:11:42;;;;;;;8.77;6.97;;;;;7.90;95143.00;;;;8446263;28;21684;-72
2023/04/15 00:15:47;;;;;;;12.17;7.00;;;;;7.90;95142.00;;;;8428362;28;20234;-73
2023/04/15 00:19:52;;;;;;;12.33;6.90;;;;;7.90;95137.00;;;;8446518;28;20216;-74
2023/04/15 00:23:55;;;;;;;9.93;7.40;;;;;7.90;95141.00;;;;8442477;28;20187;-73
2023/04/15 00:28:02;;;;;;;10.33;6.40;;;;;7.90;95130.00;;;;8440960;28;20199;-69
2023/04/15 00:32:10;;;;;;;10.37;6.67;;;;;8.00;95131.00;;;;8436881;28;20199;-75
2023/04/15 00:36:13;;;;;;;10.47;6.40;;;;;8.00;95131.00;;;;8432088;28;21234;-74
2023/04/15 00:40:19;;;;;;;8.47;6.93;;;;;8.00;95119.00;;;;8447127;28;20190;-74
2023/04/15 00:44:22;;;;;;;10.17;7.00;;;;;7.90;95109.00;;;;8440930;28;20205;-74
2023/04/15 00:48:30;;;;;;;12.50;7.70;;;;;7.90;95105.00;;;;8431092;28;20199;-73
2023/04/15 00:52:33;;;;;;;9.30;6.90;;;;;7.90;95106.00;;;;8438277;28;20191;-72
2023/04/15 00:56:40;;;;;;;16.50;7.80;;;;;7.90;95103.00;;;;8440950;28;20283;-74
2023/04/15 01:00:45;;;;;;;10.90;7.73;;;;;7.90;95106.00;;;;8444601;28;20190;-73
2023/04/15 01:04:53;;;;;;;11.00;7.60;;;;;7.90;95115.00;;;;8447782;28;20219;-72
2023/04/15 01:08:59;;;;;;;12.43;7.43;;;;;7.90;95097.00;;;;8447229;28;20267;-73
2023/04/15 01:13:05;;;;;;;13.50;7.90;;;;;7.90;95108.00;;;;8443856;28;20252;-72
2023/04/15 01:17:09;;;;;;;12.40;8.10;;;;;7.90;95106.00;;;;8449433;28;20678;-73
2023/04/15 01:21:14;;;;;;;14.70;7.73;;;;;7.90;95112.00;;;;8440813;28;20199;-71
2023/04/15 01:25:19;;;;;;;15.77;9.23;;;;;8.00;95103.00;;;;8448758;28;20200;-73
2023/04/15 01:29:23;;;;;;;12.27;8.10;;;;;8.00;95096.00;;;;8449102;27;20191;-74
2023/04/15 01:33:26;;;;;;;12.80;7.83;;;;;8.00;95093.00;;;;8448254;28;20198;-75
2023/04/15 01:37:30;;;;;;;12.70;7.83;;;;;8.00;95097.00;;;;8451194;27;20233;-75
2023/04/15 01:41:33;;;;;;;15.97;8.10;;;;;8.00;95100.00;;;;8433536;28;20618;-72
2023/04/15 01:45:38;;;;;;;10.90;7.70;;;;;8.10;95107.00;;;;8446129;28;20552;-74
2023/04/15 01:49:41;;;;;;;13.37;8.10;;;;;8.10;95110.00;;;;8445228;28;20703;-73
2023/04/15 01:53:48;;;;;;;12.00;7.30;;;;;8.10;95099.00;;;;8443330;27;20285;-73
2023/04/15 01:57:56;;;;;;;11.17;8.00;;;;;8.10;95100.00;;;;8446041;28;20260;-70
2023/04/15 02:02:02;;;;;;;13.73;7.20;;;;;8.10;95106.00;;;;8425484;28;20199;-73
2023/04/15 02:06:08;;;;;;;10.03;7.23;;;;;8.10;95088.00;;;;8448511;28;20297;-74
2023/04/15 02:10:15;;;;;;;9.57;7.30;;;;;8.10;95102.00;;;;8452236;27;20195;-74
2023/04/15 02:14:18;;;;;;;9.03;6.97;;;;;8.10;95095.00;;;;8441095;27;20190;-73
2023/04/15 02:18:23;;;;;;;13.03;7.33;;;;;8.10;95094.00;;;;8449287;28;20291;-72
2023/04/15 02:22:26;;;;;;;9.27;7.03;;;;;8.10;95096.00;;;;8436240;27;20213;-74
2023/04/15 02:26:31;;;;;;;9.10;6.53;;;;;8.10;95088.00;;;;8448154;28;20194;-75
2023/04/15 02:30:39;;;;;;;12.37;7.27;;;;;8.10;95094.00;;;;8448697;28;20203;-71
2023/04/15 02:34:44;;;;;;;9.20;6.43;;;;;8.10;95087.00;;;;8448341;28;20191;-74
2023/04/15 02:38:50;;;;;;;11.33;6.67;;;;;8.10;95102.00;;;;8445531;27;20229;-74
2023/04/15 02:42:54;;;;;;;12.13;6.90;;;;;8.00;95089.00;;;;8435732;27;20195;-74
2023/04/15 02:46:57;;;;;;;9.87;6.57;;;;;8.00;95085.00;;;;8441372;27;20263;-76
2023/04/15 02:51:14;;;;;;;10.27;7.17;;;;;7.90;95089.00;;;;8441163;28;20278;-73
2023/04/15 02:55:17;;;;;;;10.20;6.40;;;;;7.80;95093.00;;;;8448594;27;20206;-74
2023/04/15 02:59:23;;;;;;;10.70;6.40;;;;;7.80;95089.00;;;;8436621;27;20222;-75
2023/04/15 03:03:26;;;;;;;11.23;6.50;;;;;7.80;95086.00;;;;8431754;22;20631;-70
2023/04/15 03:07:34;;;;;;;9.00;6.80;;;;;7.80;95092.00;;;;8410615;28;20792;-75
2023/04/15 03:11:40;;;;;;;10.37;6.73;;;;;7.70;95084.00;;;;8412652;28;20203;-72
2023/04/15 03:15:50;;;;;;;13.23;7.17;;;;;7.60;95084.00;;;;8392926;28;20203;-75
2023/04/15 03:19:54;;;;;;;9.20;6.53;;;;;7.50;95087.00;;;;8410994;28;20810;-74
2023/04/15 03:24:01;;;;;;;11.03;6.97;;;;;7.50;95091.00;;;;8411075;28;20199;-72
2023/04/15 03:28:07;;;;;;;12.83;6.97;;;;;7.40;95090.00;;;;8412259;28;20268;-74
2023/04/15 03:32:10;;;;;;;12.63;7.43;;;;;7.30;95091.00;;;;8411194;28;20202;-76
2023/04/15 03:36:16;;;;;;;12.03;7.97;;;;;7.30;95081.00;;;;8415726;28;20224;-72
2023/04/15 03:40:26;;;;;;;15.07;8.83;;;;;7.20;95086.00;;;;8414414;28;20230;-75
2023/04/15 03:44:31;;;;;;;13.63;9.50;;;;;7.20;95088.00;;;;8413364;28;20195;-74
2023/04/15 03:48:35;;;;;;;20.50;10.77;;;;;7.10;95088.00;;;;8414329;28;20206;-77
2023/04/15 03:52:38;;;;;;;15.47;9.37;;;;;7.10;95082.00;;;;8412966;28;20195;-86
2023/04/15 03:56:48;;;;;;;17.57;10.30;;;;;7.00;95081.00;;;;8414407;28;20203;-80
2023/04/15 04:00:52;;;;;;;19.80;10.60;;;;;7.00;95082.00;;;;8394514;28;20191;-79
2023/04/15 04:04:55;;;;;;;17.70;9.47;;;;;6.90;95083.00;;;;8443489;28;20195;-76
2023/04/15 04:09:00;;;;;;;18.00;10.80;;;;;6.90;95079.00;;;;8446040;28;20782;-75
2023/04/15 04:13:06;;;;;;;16.27;9.60;;;;;6.90;95088.00;;;;8447636;28;20198;-78
2023/04/15 04:17:10;;;;;;;17.57;10.77;;;;;6.90;95087.00;;;;8445566;28;20609;-76
2023/04/15 04:21:13;;;;;;;18.37;11.03;;;;;6.90;95086.00;;;;8444569;28;20634;-78
2023/04/15 04:25:16;;;;;;;16.23;10.60;;;;;6.80;95090.00;;;;8426802;28;20210;-77
2023/04/15 04:29:26;;;;;;;19.07;10.97;;;;;6.90;95099.00;;;;8439323;28;20248;-78
2023/04/15 04:33:33;;;;;;;15.03;9.73;;;;;6.90;95098.00;;;;8443056;28;20198;-78
2023/04/15 04:37:36;;;;;;;18.47;10.60;;;;;6.90;95100.00;;;;8444020;28;20689;-77
2023/04/15 04:41:39;;;;;;;16.20;10.00;;;;;6.90;95107.00;;;;8445603;28;20199;-77
2023/04/15 04:45:44;;;;;;;17.20;10.43;;;;;6.90;95108.00;;;;8447117;28;20203;-78
2023/04/15 04:49:49;;;;;;;19.73;11.17;;;;;6.90;95115.00;;;;8445520;28;20203;-77
2023/04/15 04:53:52;;;;;;;20.20;10.13;;;;;6.90;95104.00;;;;8442826;28;20198;-78
2023/04/15 04:57:57;;;;;;;17.93;10.57;;;;;6.90;95107.00;;;;8444652;28;20729;-77
2023/04/15 05:02:02;;;;;;;22.10;10.80;;;;;6.90;95105.00;;;;8448178;28;20229;-78
2023/04/15 05:06:07;;;;;;;18.33;10.90;;;;;7.00;95112.00;;;;8432024;28;20236;-78
2023/04/15 05:10:16;;;;;;;19.97;11.30;;;;;7.00;95116.00;;;;8449086;28;20198;-78
2023/04/15 05:14:19;;;;;;;21.63;12.30;;;;;6.90;95120.00;;;;8451157;28;20244;-78
2023/04/15 05:18:29;;;;;;;26.53;12.23;;;;;6.90;95123.00;;;;8447113;28;20234;-79
2023/04/15 05:22:32;;;;;;;25.23;12.07;;;;;6.90;95125.00;;;;8453196;28;20198;-79
2023/04/15 05:26:36;;;;;;;21.57;11.87;;;;;7.00;95124.00;;;;8452426;28;20195;-77
2023/04/15 05:30:39;;;;;;;25.73;12.77;;;;;7.00;95125.00;;;;8443201;28;20206;-80
2023/04/15 05:34:45;;;;;;;18.90;10.83;;;;;7.00;95123.00;;;;8451744;27;20199;-79
2023/04/15 05:38:49;;;;;;;27.90;12.17;;;;;7.00;95132.00;;;;8455809;27;20710;-82
2023/04/15 05:42:52;;;;;;;24.80;11.00;;;;;6.90;95128.00;;;;8450227;28;20229;-77
2023/04/15 05:46:55;;;;;;;17.80;9.53;;;;;6.80;95120.00;;;;8451194;28;20195;-76
2023/04/15 05:51:05;;;;;;;13.90;8.23;;;;;6.80;95130.00;;;;8448920;28;20210;-81
2023/04/15 05:55:11;;;;;;;18.23;10.77;;;;;6.70;95135.00;;;;8450911;28;20739;-78
2023/04/15 05:59:16;;;;;;;22.90;10.43;;;;;6.70;95133.00;;;;8435146;28;20219;-76
2023/04/15 06:03:19;;;;;;;15.90;9.33;;;;;6.60;95128.00;;;;8446558;28;20226;-79
2023/04/15 06:07:24;;;;;;;11.50;7.37;;;;;6.50;95127.00;;;;8449407;28;20198;-76
2023/04/15 06:11:28;;;;;;;12.93;7.40;;;;;6.50;95128.00;;;;8442243;28;20198;-77
2023/04/15 06:15:32;;;;;;;10.07;6.47;;;;;6.50;95140.00;;;;8451567;28;20203;-76
2023/04/15 06:19:41;;;;;;;15.47;7.60;;;;;6.40;95139.00;;;;8448211;28;20237;-77
2023/04/15 06:23:45;;;;;;;12.17;6.83;;;;;6.40;95134.00;;;;8429181;28;20203;-76
2023/04/15 06:27:50;;;;;;;12.47;7.23;;;;;6.50;95135.00;;;;8434286;28;20618;-78
2023/04/15 06:31:55;;;;;;;11.33;6.70;;;;;6.50;95140.00;;;;8430074;28;20667;-77
2023/04/15 06:36:00;;;;;;;14.47;7.17;;;;;6.50;95133.00;;;;8434815;28;20205;-78
2023/04/15 06:40:05;;;;;;;13.03;7.57;;;;;6.50;95138.00;;;;8447109;28;20234;-80
2023/04/15 06:44:15;;;;;;;16.03;6.93;;;;;6.50;95140.00;;;;8448912;28;20198;-83
2023/04/15 06:48:24;;;;;;;10.67;7.17;;;;;6.60;95151.00;;;;8430587;28;20647;-80
2023/04/15 06:52:30;;;;;;;9.40;6.00;;;;;6.60;95142.00;;;;8449669;28;20664;-81
2023/04/15 06:56:35;;;;;;;14.77;7.13;;;;;6.60;95125.00;;;;8448494;28;20214;-79
2023/04/15 07:00:45;;;;;;;16.80;7.60;;;;;6.70;95133.00;;;;8447042;28;20817;-76
2023/04/15 07:04:48;;;;;;;15.67;6.70;;;;;6.80;95132.00;;;;8414396;28;20287;-80
2023/04/15 07:08:51;;;;;;;13.13;6.40;;;;;6.80;95137.00;;;;8416145;28;20195;-83
2023/04/15 07:12:57;;;;;;;10.53;6.37;;;;;6.90;95133.00;;;;8415040;28;20192;-83
2023/04/15 07:17:04;;;;;;;12.00;5.97;;;;;6.90;95134.00;;;;8417132;28;20241;-84
2023/04/15 07:21:07;;;;;;;11.90;6.43;;;;;6.90;95135.00;;;;8414646;28;20313;-76
2023/04/15 07:25:10;;;;;;;11.20;6.43;;;;;7.00;95149.00;;;;8412882;28;20223;-79
2023/04/15 07:29:15;;;;;;;11.63;6.20;;;;;7.00;95145.00;;;;8412446;28;20638;-81
2023/04/15 07:33:18;;;;;;;13.67;6.20;;;;;7.10;95141.00;;;;8413231;28;20199;-77
2023/04/15 07:37:22;;;;;;;10.27;5.47;;;;;7.20;95144.00;;;;8410043;28;20199;-77
2023/04/15 07:41:37;;;;;;;9.30;5.90;;;;;7.30;95147.00;;;;8392383;28;20269;-81
2023/04/15 07:45:47;;;;;;;11.17;6.40;;;;;7.30;95141.00;;;;8414700;28;20706;-79
2023/04/15 07:49:57;;;;;;;8.80;5.93;;;;;7.30;95135.00;;;;8409819;28;20196;-80
2023/04/15 07:54:04;;;;;;;12.47;5.80;;;;;7.40;95145.00;;;;8410424;28;20200;-79
2023/04/15 07:58:08;;;;;;;8.13;4.57;;;;;7.30;95153.00;;;;8411995;28;20195;-80
2023/04/15 08:02:13;;;;;;;8.87;5.43;;;;;7.20;95159.00;;;;8409814;28;20242;-83
2023/04/15 08:06:17;;;;;;;10.03;5.80;;;;;7.20;95157.00;;;;8410268;28;20195;-85
2023/04/15 08:10:21;;;;;;;10.03;6.57;;;;;7.20;95158.00;;;;8407261;28;20214;-83
2023/04/15 08:14:25;;;;;;;10.53;5.57;;;;;7.30;95158.00;;;;8410046;28;20234;-82
2023/04/15 08:18:29;;;;;;;8.87;4.83;;;;;7.40;95164.00;;;;8413208;28;20229;-78
2023/04/15 08:22:37;;;;;;;7.07;4.60;;;;;7.40;95165.00;;;;8414065;28;20195;-81
2023/04/15 08:26:42;;;;;;;10.03;4.87;;;;;7.50;95173.00;;;;8407271;28;20669;-80
2023/04/15 08:30:45;;;;;;;8.90;3.90;;;;;7.50;95177.00;;;;8407087;28;20705;-83
2023/04/15 08:34:52;;;;;;;5.93;4.10;;;;;7.50;95179.00;;;;8412807;28;20211;-78
2023/04/15 08:39:00;;;;;;;6.40;4.30;;;;;7.50;95168.00;;;;8420360;28;20677;-85
2023/04/15 08:43:05;;;;;;;6.17;4.17;;;;;7.50;95189.00;;;;8412442;28;20739;-84
2023/04/15 08:47:09;;;;;;;6.80;4.00;;;;;7.50;95189.00;;;;8419956;28;21104;-79
2023/04/15 08:51:15;;;;;;;4.83;3.50;;;;;7.50;95193.00;;;;8420223;28;20204;-88
2023/04/15 08:55:18;;;;;;;5.23;3.57;;;;;7.50;95197.00;;;;8420513;28;20533;-85
2023/04/15 08:59:21;;;;;;;5.97;3.40;;;;;7.50;95190.00;;;;8421091;28;20276;-79
2023/04/15 09:03:25;;;;;;;4.93;3.40;;;;;7.50;95192.00;;;;8438726;28;20218;-83
2023/04/15 09:07:30;;;;;;;3.70;3.20;;;;;7.60;95189.00;;;;8451916;28;20290;-82
2023/04/15 09:11:37;;;;;;;5.27;3.23;;;;;7.60;95203.00;;;;8450721;28;20198;-82
2023/04/15 09:15:42;;;;;;;4.60;3.17;;;;;7.70;95196.00;;;;8450477;28;20203;-84
2023/04/15 09:19:45;;;;;;;4.67;3.50;;;;;7.80;95201.00;;;;8451021;28;20219;-83
2023/04/15 09:23:58;;;;;;;6.20;3.83;;;;;7.70;95204.00;;;;8453891;28;20210;-82
2023/04/15 09:28:05;;;;;;;6.63;4.17;;;;;7.80;95201.00;;;;8454334;28;20273;-81
2023/04/15 09:32:12;;;;;;;6.43;4.20;;;;;7.70;95213.00;;;;8452443;28;20836;-83
2023/04/15 09:36:16;;;;;;;6.33;3.97;;;;;7.70;95219.00;;;;8454011;28;20854;-80
2023/04/15 09:40:35;;;;;;;9.07;3.83;;;;;7.60;95221.00;;;;8455337;28;20230;-83
2023/04/15 09:44:40;;;;;;;5.30;4.10;;;;;7.60;95225.00;;;;8446433;28;20226;-81
2023/04/15 09:48:45;;;;;;;5.53;3.83;;;;;7.70;95226.00;;;;8453939;28;20207;-81
2023/04/15 09:52:48;;;;;;;6.27;4.00;;;;;7.70;95224.00;;;;8454962;28;20377;-74
2023/04/15 09:56:55;;;;;;;6.17;3.30;;;;;7.70;95219.00;;;;8447463;28;20205;-82
2023/04/15 10:01:00;;;;;;;5.50;3.23;;;;;8.00;95229.00;;;;8454640;28;21018;-81
2023/04/15 10:05:04;;;;;;;4.97;3.10;;;;;8.00;95229.00;;;;8452336;28;20202;-80
2023/04/15 10:09:08;;;;;;;4.40;3.17;;;;;8.10;95227.00;;;;8451707;28;20199;-82
2023/04/15 10:13:21;;;;;;;3.07;2.87;;;;;8.10;95233.00;;;;8449166;28;20255;-83
2023/04/15 10:17:27;;;;;;;7.10;3.90;;;;;8.20;95239.00;;;;8450256;28;20227;-81
2023/04/15 10:21:34;;;;;;;4.70;2.93;;;;;8.40;95236.00;;;;8448095;28;20218;-79
2023/04/15 10:25:37;;;;;;;2.90;2.47;;;;;8.40;95239.00;;;;8453526;28;20408;-83
2023/04/15 10:29:44;;;;;;;3.43;2.20;;;;;8.50;95252.00;;;;8449367;28;20206;-78
2023/04/15 10:33:49;;;;;;;2.87;2.30;;;;;8.40;95250.00;;;;8429973;28;20198;-80
2023/04/15 10:37:53;;;;;;;3.03;2.73;;;;;8.40;95250.00;;;;8453163;28;20948;-83
2023/04/15 10:42:07;;;;;;;3.20;2.50;;;;;8.50;95245.00;;;;8445789;28;20283;-81
2023/04/15 10:46:11;;;;;;;2.70;2.50;;;;;8.80;95243.00;;;;8449489;28;20191;-82
2023/04/15 10:50:14;;;;;;;2.07;1.97;;;;;9.30;95246.00;;;;8452577;28;20231;-81
2023/04/15 10:54:35;;;;;;;4.60;2.30;;;;;9.40;95237.00;;;;8452618;28;20190;-78
2023/04/15 10:58:45;;;;;;;2.45;2.35;;;;;9.80;95240.00;;;;8451214;28;20738;-78
2023/04/15 11:02:56;;;;;;;2.75;2.30;;;;;10.60;95251.00;;;;8448458;28;20305;-79
2023/04/15 11:07:06;;;;;;;1.90;1.80;;;;;10.50;95252.00;;;;8432939;28;20195;-80
2023/04/15 11:11:12;;;;;;;2.05;1.88;;;;;10.50;95254.00;;;;8450590;28;20196;-77
2023/04/15 11:15:30;;;;;;;2.70;1.87;;;;;10.80;95254.00;;;;8450449;28;20202;-80
2023/04/15 11:19:38;;;;;;;1.80;1.70;;;;;11.10;95258.00;;;;8452804;28;20199;-74
2023/04/15 11:23:45;;;;;;;1.83;1.73;;;;;11.50;95261.00;;;;8438614;28;21476;-78
2023/04/15 11:27:49;;;;;;;1.80;1.70;;;;;11.80;95265.00;;;;8438456;28;20206;-76
2023/04/15 11:31:52;;;;;;;3.22;1.88;;;;;12.20;95268.00;;;;8448883;28;20208;-73
2023/04/15 11:36:04;;;;;;;1.98;1.80;;;;;12.00;95276.00;;;;8440272;28;20200;-74
2023/04/15 11:40:11;;;;;;;2.05;1.95;;;;;11.80;95268.00;;;;8447470;28;20219;-74
2023/04/15 11:44:17;;;;;;;1.90;1.80;;;;;11.60;95266.00;;;;8426228;28;20785;-76
2023/04/15 11:48:24;;;;;;;1.60;1.50;;;;;11.40;95279.00;;;;8441789;28;20657;-73
2023/04/15 11:52:31;;;;;;;1.77;1.67;;;;;11.00;95279.00;;;;8436634;28;20194;-76
2023/04/15 11:56:36;;;;;;;1.65;1.63;;;;;10.80;95281.00;;;;8436005;28;20221;-77
2023/04/15 12:00:43;;;;;;;1.73;1.67;;;;;10.80;95288.00;;;;8443085;28;20229;-74
2023/04/15 12:04:46;;;;;;;1.90;1.80;;;;;10.70;95298.00;;;;8408192;28;20221;-74
2023/04/15 12:09:07;;;;;;;1.85;1.70;;;;;10.40;95296.00;;;;8411927;28;20256;-77
2023/04/15 12:13:11;;;;;;;1.80;1.70;;;;;10.40;95303.00;;;;8408260;28;20322;-74
2023/04/15 12:17:16;;;;;;;1.88;1.77;;;;;10.70;95308.00;;;;8405689;28;20192;-75
2023/04/15 12:21:20;;;;;;;1.77;1.67;;;;;11.00;95312.00;;;;8407923;28;20214;-75
2023/04/15 12:25:40;;;;;;;1.50;1.50;;;;;10.70;95315.00;;;;8407378;28;20202;-75
2023/04/15 12:29:43;;;;;;;2.15;1.58;;;;;10.60;95316.00;;;;8412360;28;20207;-75
2023/04/15 12:33:51;;;;;;;1.85;1.75;;;;;10.50;95315.00;;;;8408297;28;20188;-74
2023/04/15 12:37:54;;;;;;;1.98;1.88;;;;;10.60;95334.00;;;;8408207;28;20204;-74
2023/04/15 12:42:01;;;;;;;2.53;2.38;;;;;10.40;95339.00;;;;8407306;28;20241;-75
2023/04/15 12:46:05;;;;;;;1.90;1.80;;;;;10.40;95345.00;;;;8410129;28;20207;-72
2023/04/15 12:50:13;;;;;;;2.00;1.90;;;;;10.50;95340.00;;;;8407742;28;20196;-75
2023/04/15 12:54:20;;;;;;;2.00;1.90;;;;;10.40;95352.00;;;;8394455;28;20196;-73
2023/04/15 12:58:26;;;;;;;2.20;2.10;;;;;10.30;95347.00;;;;8406621;28;20224;-73
2023/04/15 13:02:31;;;;;;;2.42;2.05;;;;;10.30;95361.00;;;;8423247;28;20226;-73
2023/04/15 13:06:37;;;;;;;2.42;2.20;;;;;10.20;95363.00;;;;8437593;28;20207;-75
2023/04/15 13:10:43;;;;;;;2.25;2.15;;;;;10.20;95368.00;;;;8411339;28;20256;-70
2023/04/15 13:14:52;;;;;;;2.30;2.20;;;;;10.00;95375.00;;;;8437549;28;20198;-72
2023/04/15 13:19:01;;;;;;;2.80;2.60;;;;;9.70;95389.00;;;;8440098;28;20226;-69
2023/04/15 13:23:07;;;;;;;3.25;3.05;;;;;9.60;95385.00;;;;8434109;28;20222;-73
2023/04/15 13:27:10;;;;;;;3.00;2.80;;;;;9.50;95391.00;;;;8447895;28;20906;-74
2023/04/15 13:31:14;;;;;;;2.87;2.67;;;;;9.50;95382.00;;;;8450710;28;20199;-74
2023/04/15 13:35:20;;;;;;;2.90;2.70;;;;;9.40;95399.00;;;;8449215;28;20202;-72
2023/04/15 13:39:26;;;;;;;3.15;2.95;;;;;9.40;95397.00;;;;8450299;28;20202;-74
2023/04/15 13:43:33;;;;;;;2.90;2.65;;;;;9.40;95397.00;;;;8448626;28;20230;-71
2023/04/15 13:47:37;;;;;;;3.07;2.87;;;;;9.50;95403.00;;;;8447421;28;20252;-74
2023/04/15 13:51:41;;;;;;;3.03;2.70;;;;;9.50;95402.00;;;;8444679;28;20297;-72
2023/04/15 13:55:44;;;;;;;3.05;2.70;;;;;9.60;95410.00;;;;8449285;28;20613;-74
2023/04/15 13:59:47;;;;;;;3.40;3.10;;;;;9.50;95410.00;;;;8445738;28;20187;-74
2023/04/15 14:03:54;;;;;;;3.92;2.97;;;;;9.60;95423.00;;;;8448506;28;20226;-72
2023/04/15 14:07:59;;;;;;;3.47;3.17;;;;;9.70;95413.00;;;;8448638;28;20194;-71
2023/04/15 14:12:04;;;;;;;3.60;3.30;;;;;9.80;95424.00;;;;8446026;28;20210;-70
2023/04/15 14:16:15;;;;;;;3.50;3.20;;;;;9.70;95426.00;;;;8446928;28;20192;-75
2023/04/15 14:20:20;;;;;;;3.72;3.35;;;;;9.80;95428.00;;;;8446500;28;20208;-71
2023/04/15 14:24:26;;;;;;;3.92;3.60;;;;;9.80;95437.00;;;;8447353;28;20218;-72
2023/04/15 14:28:32;;;;;;;6.60;3.90;;;;;9.80;95443.00;;;;8447340;28;20266;-73
2023/04/15 14:32:40;;;;;;;4.07;3.67;;;;;9.80;95436.00;;;;8441386;28;20206;-74
2023/04/15 14:36:45;;;;;;;4.47;3.92;;;;;9.80;95449.00;;;;8440486;28;20661;-80
2023/04/15 14:40:48;;;;;;;4.70;4.20;;;;;9.80;95449.00;;;;8446947;28;20197;-80
2023/04/15 14:44:55;;;;;;;4.80;4.20;;;;;9.70;95449.00;;;;8442352;28;20203;-81
2023/04/15 14:49:00;;;;;;;5.43;4.53;;;;;9.80;95454.00;;;;8447361;28;20287;-79
2023/04/15 14:53:09;;;;;;;4.90;4.38;;;;;9.70;95469.00;;;;8444624;28;20192;-79
2023/04/15 14:57:12;;;;;;;35.97;22.02;;;;;9.80;95471.00;;;;8444305;28;20194;-81
2023/04/15 15:01:16;;;;;;;8.77;6.75;;;;;9.90;95459.00;;;;8445525;28;20258;-77
2023/04/15 15:05:19;;;;;;;6.00;5.20;;;;;10.10;95474.00;;;;8445011;28;20237;-75
2023/04/15 15:09:27;;;;;;;436.15;195.77;;;;;10.20;95478.00;;;;8441147;28;20244;-75
2023/04/15 15:13:33;;;;;;;153.93;65.13;;;;;10.30;95479.00;;;;8416083;28;20202;-76
2023/04/15 15:17:40;;;;;;;5.00;4.50;;;;;10.30;95483.00;;;;8423895;28;20209;-77
2023/04/15 15:21:43;;;;;;;4.22;3.83;;;;;10.20;95489.00;;;;8443485;28;20305;-76
2023/04/15 15:25:48;;;;;;;3.88;3.58;;;;;10.10;95489.00;;;;8443090;28;20202;-74
2023/04/15 15:29:52;;;;;;;4.00;3.60;;;;;10.00;95495.00;;;;8443563;28;20325;-76
2023/04/15 15:33:57;;;;;;;6.97;4.18;;;;;10.00;95501.00;;;;8445870;28;20707;-75
2023/04/15 15:38:03;;;;;;;5.22;3.85;;;;;9.80;95507.00;;;;8446874;28;20199;-77
2023/04/15 15:42:08;;;;;;;4.28;3.92;;;;;9.80;95509.00;;;;8443252;28;20223;-77
2023/04/15 15:46:15;;;;;;;24.20;17.13;;;;;9.80;95504.00;;;;8446531;28;20204;-73
2023/04/15 15:50:23;;;;;;;4.78;3.65;;;;;10.00;95516.00;;;;8446545;28;20228;-77
2023/04/15 15:54:28;;;;;;;5.68;5.18;;;;;10.10;95518.00;;;;8441646;28;20638;-78
2023/04/15 15:58:32;;;;;;;5.47;4.97;;;;;10.30;95529.00;;;;8442948;28;20268;-78
2023/04/15 16:02:37;;;;;;;4.00;3.63;;;;;10.40;95534.00;;;;8430372;28;20831;-78
2023/04/15 16:06:45;;;;;;;3.60;3.30;;;;;10.50;95537.00;;;;8416689;28;20199;-75
2023/04/15 16:10:48;;;;;;;4.00;3.60;;;;;10.50;95548.00;;;;8418452;28;20618;-77
2023/04/15 16:14:55;;;;;;;5.00;4.13;;;;;10.60;95547.00;;;;8416816;28;20197;-76
2023/04/15 16:18:58;;;;;;;3.72;3.33;;;;;10.60;95556.00;;;;8411374;28;20195;-79
2023/04/15 16:23:11;;;;;;;5.07;3.78;;;;;10.60;95556.00;;;;8416342;28;20219;-78
2023/04/15 16:27:16;;;;;;;6.47;5.90;;;;;10.60;95566.00;;;;8411607;28;20234;-80
2023/04/15 16:31:24;;;;;;;3.88;3.50;;;;;10.50;95568.00;;;;8415892;28;20197;-79
2023/04/15 16:35:40;;;;;;;3.65;3.35;;;;;10.40;95567.00;;;;8409817;28;20200;-76
2023/04/15 16:39:43;;;;;;;4.20;3.80;;;;;10.40;95571.00;;;;8411670;28;20253;-75
2023/04/15 16:43:50;;;;;;;4.03;3.67;;;;;10.30;95580.00;;;;8410266;28;20219;-76
2023/04/15 16:47:55;;;;;;;4.13;3.80;;;;;10.20;95579.00;;;;8416232;28;20522;-80
2023/04/15 16:51:58;;;;;;;4.43;3.70;;;;;10.10;95583.00;;;;8413981;28;20272;-79
2023/04/15 16:56:02;;;;;;;4.03;3.72;;;;;10.10;95584.00;;;;8417408;28;20192;-82
2023/04/15 17:00:06;;;;;;;5.57;4.60;;;;;10.10;95582.00;;;;8414639;27;20200;-83
2023/04/15 17:04:11;;;;;;;5.37;4.60;;;;;10.00;95592.00;;;;8422044;28;20637;-83
2023/04/15 17:08:14;;;;;;;4.32;3.90;;;;;10.00;95591.00;;;;8419170;28;20199;-78
2023/04/15 17:12:21;;;;;;;4.32;3.92;;;;;10.00;95592.00;;;;8416974;28;20282;-76
2023/04/15 17:16:29;;;;;;;5.88;4.65;;;;;9.90;95603.00;;;;8416084;28;20551;-76
2023/04/15 17:20:34;;;;;;;5.40;4.45;;;;;9.90;95604.00;;;;8415376;28;20196;-76
2023/04/15 17:24:37;;;;;;;5.63;3.95;;;;;9.80;95612.00;;;;8416838;28;20236;-77
2023/04/15 17:28:40;;;;;;;4.90;3.63;;;;;9.80;95616.00;;;;8415341;28;20196;-75
2023/04/15 17:32:43;;;;;;;9.05;4.40;;;;;9.80;95627.00;;;;8415034;28;20300;-77
2023/04/15 17:36:50;;;;;;;5.93;4.07;;;;;9.70;95638.00;;;;8421404;28;20227;-75
2023/04/15 17:40:53;;;;;;;4.65;4.25;;;;;9.60;95651.00;;;;8417209;28;20187;-75
2023/04/15 17:45:02;;;;;;;5.85;3.90;;;;;9.40;95645.00;;;;8416719;28;20228;-76
2023/04/15 17:49:05;;;;;;;5.10;4.28;;;;;9.30;95653.00;;;;8415166;28;20286;-71
2023/04/15 17:53:10;;;;;;;4.72;4.28;;;;;9.20;95658.00;;;;8415501;28;20191;-75
2023/04/15 17:57:13;;;;;;;5.43;4.53;;;;;9.20;95655.00;;;;8414857;28;20632;-75
2023/04/15 18:01:16;;;;;;;6.22;4.40;;;;;9.20;95665.00;;;;8418846;28;20240;-78
2023/04/15 18:05:20;;;;;;;5.00;4.50;;;;;9.10;95670.00;;;;8445074;28;20248;-76
2023/04/15 18:09:24;;;;;;;5.73;4.60;;;;;9.10;95676.00;;;;8449721;28;20225;-76
2023/04/15 18:13:27;;;;;;;5.93;4.88;;;;;9.20;95681.00;;;;8445479;28;20252;-78
2023/04/15 18:17:31;;;;;;;7.83;4.70;;;;;9.20;95691.00;;;;8447192;28;20277;-73
2023/04/15 18:21:36;;;;;;;6.60;4.70;;;;;9.20;95692.00;;;;8428652;28;20213;-72
2023/04/15 18:25:44;;;;;;;7.72;4.93;;;;;9.20;95700.00;;;;8445579;28;20229;-74
2023/04/15 18:29:53;;;;;;;35.85;17.70;;;;;9.20;95703.00;;;;8448952;28;20695;-74
2023/04/15 18:33:59;;;;;;;360.67;143.80;;;;;9.30;95708.00;;;;8444695;28;20217;-75
2023/04/15 18:38:05;;;;;;;22.25;11.15;;;;;9.30;95711.00;;;;8451494;28;20213;-73
2023/04/15 18:42:09;;;;;;;288.03;104.53;;;;;9.30;95723.00;;;;8447669;28;20206;-75
2023/04/15 18:46:13;;;;;;;30.77;13.13;;;;;9.30;95729.00;;;;8428930;28;20548;-73
2023/04/15 18:50:17;;;;;;;1705.50;496.58;;;;;9.30;95733.00;;;;8445840;28;20206;-75
2023/04/15 18:54:22;;;;;;;251.73;72.33;;;;;9.30;95743.00;;;;8447704;28;20609;-76
2023/04/15 18:58:27;;;;;;;58.80;22.50;;;;;9.30;95748.00;;;;8441639;28;20203;-71
2023/04/15 19:02:50;;;;;;;594.05;174.30;;;;;9.30;95763.00;;;;8448531;28;20265;-70
2023/04/15 19:06:55;;;;;;;388.67;101.47;;;;;9.30;95761.00;;;;8448568;28;20199;-72
2023/04/15 19:10:58;;;;;;;68.03;21.47;;;;;9.30;95770.00;;;;8451007;28;20199;-74
2023/04/15 19:15:05;;;;;;;172.20;87.60;;;;;9.30;95772.00;;;;8449318;28;20750;-75
2023/04/15 19:19:08;;;;;;;26.90;21.55;;;;;9.30;95777.00;;;;8448974;28;20199;-76
2023/04/15 19:23:14;;;;;;;8.83;6.83;;;;;9.30;95781.00;;;;8447795;28;20219;-76
2023/04/15 19:27:18;;;;;;;17.42;14.98;;;;;9.30;95780.00;;;;8447976;28;20284;-74
2023/04/15 19:31:22;;;;;;;17.00;13.55;;;;;9.40;95788.00;;;;8450329;28;20198;-76
2023/04/15 19:35:27;;;;;;;10.33;6.73;;;;;9.40;95793.00;;;;8448075;28;20223;-74
2023/04/15 19:39:32;;;;;;;7.40;6.00;;;;;9.40;95799.00;;;;8448777;28;20206;-78
2023/04/15 19:43:36;;;;;;;8.45;6.20;;;;;9.40;95797.00;;;;8448321;28;20230;-76
2023/04/15 19:47:41;;;;;;;6.40;5.40;;;;;9.40;95798.00;;;;8430183;28;20199;-77
2023/04/15 19:51:44;;;;;;;7.88;5.50;;;;;9.40;95795.00;;;;8448376;28;20737;-73
2023/04/15 19:55:52;;;;;;;6.30;4.93;;;;;9.40;95806.00;;;;8446419;28;20248;-77
2023/04/15 19:59:57;;;;;;;6.20;5.50;;;;;9.40;95801.00;;;;8443099;28;20205;-77
2023/04/15 20:04:05;;;;;;;6.90;5.30;;;;;9.30;95808.00;;;;8447354;27;20252;-81
2023/04/15 20:08:08;;;;;;;6.60;5.00;;;;;9.30;95820.00;;;;8447235;28;20205;-74
2023/04/15 20:12:11;;;;;;;8.10;5.33;;;;;9.20;95812.00;;;;8443988;28;20365;-79
2023/04/15 20:16:37;;;;;;;8.43;5.88;;;;;9.20;95821.00;;;;8444971;28;20271;-74
2023/04/15 20:20:42;;;;;;;9.70;5.67;;;;;9.20;95823.00;;;;8446626;28;20246;-75
2023/04/15 20:24:45;;;;;;;9.93;5.87;;;;;9.20;95824.00;;;;8438152;28;20230;-79
2023/04/15 20:28:48;;;;;;;7.18;5.88;;;;;9.20;95826.00;;;;8447277;28;20202;-75
2023/04/15 20:32:55;;;;;;;8.43;6.13;;;;;9.20;95829.00;;;;8452445;28;20282;-75